createdAt,value
2018-12-13T00:02:00.559Z,11.53
2018-12-13T00:04:31.522Z,13.03
2018-12-13T00:07:00.451Z,12.77
2018-12-13T00:09:29.408Z,13.20
2018-12-13T00:11:58.330Z,13.50
2018-12-13T00:14:27.350Z,12.47
2018-12-13T00:16:56.276Z,13.20
2018-12-13T00:19:25.223Z,14.83
2018-12-13T00:21:54.147Z,14.67
2018-12-13T00:24:23.089Z,13.77
2018-12-13T00:26:52.117Z,13.90
2018-12-13T00:29:21.126Z,13.73
2018-12-13T00:31:50.138Z,14.70
2018-12-13T00:34:19.036Z,14.77
2018-12-13T00:36:48.771Z,15.13
2018-12-13T00:39:17.699Z,16.10
2018-12-13T00:41:46.657Z,15.73
2018-12-13T00:44:15.644Z,15.47
2018-12-13T00:46:44.527Z,15.67
2018-12-13T00:49:13.589Z,16.93
2018-12-13T00:51:42.522Z,15.53
2018-12-13T00:54:11.480Z,15.60
2018-12-13T00:56:41.082Z,14.97
2018-12-13T00:59:10.039Z,15.10
2018-12-13T01:01:38.988Z,15.67
2018-12-13T01:04:10.217Z,14.90
2018-12-13T01:06:39.160Z,15.73
2018-12-13T01:09:08.034Z,15.10
2018-12-13T01:11:38.941Z,14.50
2018-12-13T01:14:07.847Z,15.93
2018-12-13T01:16:36.759Z,14.80
2018-12-13T01:19:05.673Z,15.43
2018-12-13T01:21:34.674Z,15.03
2018-12-13T01:24:03.642Z,15.00
2018-12-13T01:26:32.586Z,14.43
2018-12-13T01:29:01.503Z,13.90
2018-12-13T01:31:30.449Z,14.37
2018-12-13T01:33:59.384Z,14.60
2018-12-13T01:36:28.270Z,14.43
2018-12-13T01:38:57.203Z,16.03
2018-12-13T01:41:26.150Z,16.63
2018-12-13T01:43:55.189Z,17.17
2018-12-13T01:46:24.112Z,15.90
2018-12-13T01:48:53.091Z,17.27
2018-12-13T01:51:21.981Z,17.27
2018-12-13T01:53:50.909Z,17.80
2018-12-13T01:56:19.801Z,17.47
2018-12-13T01:58:48.724Z,17.73
2018-12-13T02:01:18.734Z,16.53
2018-12-13T02:03:47.718Z,16.77
2018-12-13T02:06:17.767Z,17.93
2018-12-13T02:08:46.711Z,18.37
2018-12-13T02:11:15.581Z,18.33
2018-12-13T02:13:45.555Z,17.37
2018-12-13T02:16:14.902Z,19.17
2018-12-13T02:18:43.838Z,17.13
2018-12-13T02:21:12.782Z,15.97
2018-12-13T02:23:41.691Z,15.57
2018-12-13T02:26:10.587Z,11.50
2018-12-13T02:28:39.542Z,11.53
2018-12-13T02:31:08.464Z,10.47
2018-12-13T02:33:37.342Z,9.63
2018-12-13T02:36:06.258Z,8.67
2018-12-13T02:38:35.217Z,6.97
2018-12-13T02:41:04.226Z,7.30
2018-12-13T02:43:33.256Z,7.43
2018-12-13T02:46:02.210Z,8.20
2018-12-13T02:48:31.114Z,6.73
2018-12-13T02:51:00.121Z,7.07
2018-12-13T02:53:29.069Z,6.83
2018-12-13T02:55:58.022Z,6.80
2018-12-13T02:58:26.959Z,6.67
2018-12-13T03:00:55.863Z,7.00
2018-12-13T03:03:24.762Z,6.83
2018-12-13T03:05:53.731Z,6.83
2018-12-13T03:08:22.986Z,6.70
2018-12-13T03:10:53.048Z,6.80
2018-12-13T03:13:21.969Z,6.57
2018-12-13T03:15:50.859Z,6.23
2018-12-13T03:18:21.748Z,6.50
2018-12-13T03:20:50.618Z,6.03
2018-12-13T03:23:19.568Z,6.90
2018-12-13T03:25:48.553Z,6.93
2018-12-13T03:28:17.458Z,7.00
2018-12-13T03:30:46.391Z,6.57
2018-12-13T03:33:15.315Z,6.90
2018-12-13T03:35:44.247Z,6.40
2018-12-13T03:38:13.186Z,6.73
2018-12-13T03:40:42.296Z,7.53
2018-12-13T03:43:11.180Z,7.53
2018-12-13T03:45:40.096Z,7.70
2018-12-13T03:48:08.968Z,7.77
2018-12-13T03:50:38.017Z,8.27
2018-12-13T03:53:06.946Z,8.87
2018-12-13T03:55:35.879Z,8.47
2018-12-13T03:58:04.799Z,8.50
2018-12-13T04:00:33.654Z,9.30
2018-12-13T04:03:03.672Z,9.57
2018-12-13T04:05:32.526Z,9.37
2018-12-13T04:08:01.450Z,9.10
2018-12-13T04:10:31.459Z,9.40
2018-12-13T04:13:00.397Z,9.77
2018-12-13T04:15:29.424Z,11.37
2018-12-13T04:17:58.365Z,11.07
2018-12-13T04:20:29.254Z,12.10
2018-12-13T04:22:58.186Z,13.07
2018-12-13T04:25:27.180Z,12.63
2018-12-13T04:27:56.138Z,11.07
2018-12-13T04:30:25.186Z,12.30
2018-12-13T04:32:54.110Z,14.10
2018-12-13T04:35:23.053Z,12.33
2018-12-13T04:37:51.997Z,13.90
2018-12-13T04:40:20.905Z,14.00
2018-12-13T04:42:49.882Z,14.30
2018-12-13T04:45:18.835Z,13.13
2018-12-13T04:47:47.779Z,12.27
2018-12-13T04:50:16.744Z,14.07
2018-12-13T04:52:45.675Z,14.33
2018-12-13T04:55:14.641Z,14.17
2018-12-13T04:57:43.601Z,13.90
2018-12-13T05:00:12.611Z,13.57
2018-12-13T05:02:41.562Z,14.40
2018-12-13T05:05:10.503Z,13.33
2018-12-13T05:07:41.913Z,17.30
2018-12-13T05:10:14.797Z,14.63
2018-12-13T05:12:43.749Z,15.80
2018-12-13T05:15:12.633Z,13.97
2018-12-13T05:17:41.615Z,13.67
2018-12-13T05:20:10.541Z,14.80
2018-12-13T05:22:39.457Z,15.37
2018-12-13T05:25:08.598Z,18.00
2018-12-13T05:27:37.539Z,15.63
2018-12-13T05:30:06.541Z,16.60
2018-12-13T05:32:35.466Z,15.27
2018-12-13T05:35:04.472Z,17.03
2018-12-13T05:37:33.922Z,16.13
2018-12-13T05:40:03.838Z,15.87
2018-12-13T05:42:32.813Z,18.37
2018-12-13T05:45:01.793Z,17.87
2018-12-13T05:47:30.785Z,16.30
2018-12-13T05:49:59.740Z,17.20
2018-12-13T05:52:28.766Z,17.30
2018-12-13T05:54:57.693Z,17.30
2018-12-13T05:57:26.614Z,16.77
2018-12-13T05:59:55.548Z,16.77
2018-12-13T06:02:24.511Z,18.63
2018-12-13T06:04:53.488Z,17.10
2018-12-13T06:07:22.376Z,17.40
2018-12-13T06:09:51.317Z,18.73
2018-12-13T06:12:20.254Z,19.43
2018-12-13T06:14:49.743Z,19.13
2018-12-13T06:17:18.650Z,19.00
2018-12-13T06:19:47.581Z,18.10
2018-12-13T06:22:16.595Z,19.67
2018-12-13T06:24:46.029Z,19.67
2018-12-13T06:27:15.097Z,18.73
2018-12-13T06:29:48.833Z,18.77
2018-12-13T06:32:15.011Z,19.53
2018-12-13T06:34:44.048Z,20.93
2018-12-13T06:37:13.545Z,22.53
2018-12-13T06:39:42.477Z,20.20
2018-12-13T06:42:11.377Z,24.17
2018-12-13T06:44:40.315Z,22.97
2018-12-13T06:47:09.318Z,24.27
2018-12-13T06:49:38.886Z,20.30
2018-12-13T06:52:07.927Z,22.50
2018-12-13T06:54:36.859Z,23.23
2018-12-13T06:57:05.888Z,25.80
2018-12-13T06:59:34.824Z,21.97
2018-12-13T07:02:03.799Z,22.47
2018-12-13T07:04:32.671Z,23.03
2018-12-13T07:07:01.730Z,22.97
2018-12-13T07:09:30.693Z,24.47
2018-12-13T07:11:59.634Z,24.43
2018-12-13T07:14:28.681Z,22.97
2018-12-13T07:16:57.667Z,24.77
2018-12-13T07:19:27.464Z,23.40
2018-12-13T07:21:56.357Z,24.00
2018-12-13T07:24:25.282Z,23.87
2018-12-13T07:26:54.196Z,24.10
2018-12-13T07:29:23.200Z,22.00
2018-12-13T07:31:52.078Z,22.13
2018-12-13T07:34:21.005Z,21.50
2018-12-13T07:36:50.001Z,21.33
2018-12-13T07:39:18.936Z,22.67
2018-12-13T07:41:47.847Z,21.17
2018-12-13T07:44:16.837Z,21.00
2018-12-13T07:46:45.769Z,22.03
2018-12-13T07:49:14.782Z,18.63
2018-12-13T07:51:43.707Z,20.67
2018-12-13T07:54:12.594Z,21.07
2018-12-13T07:56:41.575Z,21.47
2018-12-13T07:59:10.993Z,20.67
2018-12-13T08:01:39.900Z,21.63
2018-12-13T08:04:08.809Z,18.30
2018-12-13T08:06:37.739Z,19.90
2018-12-13T08:09:08.563Z,18.57
2018-12-13T08:11:37.458Z,18.30
2018-12-13T08:14:06.339Z,18.50
2018-12-13T08:21:49.089Z,17.53
2018-12-13T08:24:18.069Z,17.17
2018-12-13T08:26:48.942Z,18.17
2018-12-13T08:29:18.163Z,18.67
2018-12-13T08:31:48.248Z,18.77
2018-12-13T08:34:17.171Z,17.77
2018-12-13T08:36:46.035Z,17.13
2018-12-13T08:39:15.018Z,17.37
2018-12-13T08:41:44.360Z,16.63
2018-12-13T08:44:14.386Z,16.50
2018-12-13T08:46:43.285Z,19.30
2018-12-13T08:49:12.253Z,16.37
2018-12-13T08:51:41.202Z,19.13
2018-12-13T08:54:10.162Z,17.53
2018-12-13T08:56:39.086Z,18.00
2018-12-13T08:59:07.966Z,17.60
2018-12-13T09:01:36.915Z,20.33
2018-12-13T09:04:05.803Z,19.20
2018-12-13T09:06:34.719Z,17.47
2018-12-13T09:09:05.467Z,19.17
2018-12-13T09:11:35.470Z,19.27
2018-12-13T09:14:04.833Z,20.30
2018-12-13T09:16:33.810Z,18.27
2018-12-13T09:19:02.925Z,18.27
2018-12-13T09:21:32.040Z,20.53
2018-12-13T09:24:01.002Z,17.00
2018-12-13T09:26:29.945Z,17.27
2018-12-13T09:28:58.902Z,19.20
2018-12-13T09:31:27.926Z,18.50
2018-12-13T09:33:56.850Z,16.83
2018-12-13T09:36:25.811Z,15.07
2018-12-13T09:38:55.221Z,17.10
2018-12-13T09:41:24.915Z,18.33
2018-12-13T09:43:54.058Z,17.73
2018-12-13T09:46:23.038Z,17.90
2018-12-13T09:48:51.990Z,17.90
2018-12-13T09:51:20.954Z,18.20
2018-12-13T09:53:49.862Z,19.23
2018-12-13T09:56:18.802Z,20.27
2018-12-13T09:58:47.818Z,20.17
2018-12-13T10:01:16.771Z,19.17
2018-12-13T10:03:45.702Z,19.80
2018-12-13T10:06:14.577Z,21.80
2018-12-13T10:08:46.236Z,20.53
2018-12-13T10:11:14.453Z,24.13
2018-12-13T10:13:43.435Z,19.57
2018-12-13T10:16:12.366Z,17.50
2018-12-13T10:18:41.255Z,18.97
2018-12-13T10:21:10.300Z,19.03
2018-12-13T10:23:39.209Z,18.77
2018-12-13T10:26:08.161Z,19.47
2018-12-13T10:28:37.674Z,17.43
2018-12-13T10:31:06.653Z,17.93
2018-12-13T10:33:35.546Z,17.30
2018-12-13T10:36:04.489Z,15.33
2018-12-13T10:38:33.466Z,16.13
2018-12-13T10:41:02.336Z,16.07
2018-12-13T10:43:31.346Z,13.63
2018-12-13T10:46:00.212Z,16.07
2018-12-13T10:48:29.243Z,12.67
2018-12-13T10:50:58.238Z,14.53
2018-12-13T10:53:27.137Z,15.63
2018-12-13T10:55:56.407Z,14.90
2018-12-13T10:58:25.272Z,14.33
2018-12-13T11:00:59.545Z,13.50
2018-12-13T11:03:33.961Z,14.03
2018-12-13T11:06:02.847Z,15.23
2018-12-13T11:08:31.885Z,16.00
2018-12-13T11:11:00.806Z,15.07
2018-12-13T11:13:30.323Z,15.00
2018-12-13T11:15:59.262Z,14.30
2018-12-13T11:18:28.159Z,16.63
2018-12-13T11:20:57.160Z,13.90
2018-12-13T11:23:26.104Z,17.30
2018-12-13T11:25:55.326Z,14.70
2018-12-13T11:28:35.756Z,14.40
2018-12-13T11:31:04.740Z,14.40
2018-12-13T11:33:33.610Z,15.47
2018-12-13T11:36:02.550Z,14.80
2018-12-13T11:38:31.534Z,15.13
2018-12-13T11:41:00.521Z,15.23
2018-12-13T11:43:29.459Z,13.03
2018-12-13T11:45:59.129Z,13.23
2018-12-13T11:48:28.145Z,13.33
2018-12-13T11:50:57.106Z,13.20
2018-12-13T11:53:25.999Z,12.20
2018-12-13T11:55:54.958Z,11.57
2018-12-13T11:58:23.888Z,13.23
2018-12-13T12:00:52.839Z,13.97
2018-12-13T12:03:21.819Z,12.67
2018-12-13T12:05:50.788Z,14.60
2018-12-13T12:08:20.765Z,11.50
2018-12-13T12:10:49.730Z,12.67
2018-12-13T12:13:18.676Z,13.90
2018-12-13T12:15:47.554Z,12.13
2018-12-13T12:18:16.744Z,11.93
2018-12-13T12:20:45.786Z,13.30
2018-12-13T12:23:14.765Z,13.53
2018-12-13T12:25:43.680Z,15.80
2018-12-13T12:28:12.646Z,13.20
2018-12-13T12:30:41.570Z,12.53
2018-12-13T12:33:10.543Z,12.83
2018-12-13T12:35:39.423Z,13.10
2018-12-13T12:38:08.369Z,14.47
2018-12-13T12:40:37.285Z,16.73
2018-12-13T12:43:06.177Z,13.37
2018-12-13T12:45:35.199Z,14.03
2018-12-13T12:48:04.106Z,12.03
2018-12-13T12:50:34.310Z,11.53
2018-12-13T12:53:03.251Z,14.23
2018-12-13T12:55:32.211Z,12.07
2018-12-13T12:58:01.133Z,13.63
2018-12-13T13:00:30.161Z,12.80
2018-12-13T13:02:59.457Z,12.23
2018-12-13T13:05:28.422Z,13.77
2018-12-13T13:07:57.891Z,12.50
2018-12-13T13:10:26.954Z,14.30
2018-12-13T13:12:55.959Z,12.30
2018-12-13T13:15:25.008Z,12.80
2018-12-13T13:17:53.932Z,11.87
2018-12-13T13:20:22.896Z,11.73
2018-12-13T13:22:51.903Z,11.90
2018-12-13T13:25:20.838Z,13.53
2018-12-13T13:27:50.660Z,13.27
2018-12-13T13:30:19.823Z,14.17
2018-12-13T13:32:48.789Z,15.73
2018-12-13T13:35:17.749Z,14.07
2018-12-13T13:37:46.658Z,14.37
2018-12-13T13:40:15.541Z,13.30
2018-12-13T13:42:44.598Z,14.07
2018-12-13T13:45:13.621Z,14.13
2018-12-13T13:47:42.554Z,13.17
2018-12-13T13:50:11.520Z,14.17
2018-12-13T13:52:40.667Z,18.67
2018-12-13T13:55:09.610Z,16.77
2018-12-13T13:57:38.581Z,17.37
2018-12-13T14:00:09.458Z,14.77
2018-12-13T14:02:38.390Z,15.37
2018-12-13T14:05:07.368Z,19.37
2018-12-13T14:07:36.239Z,14.57
2018-12-13T14:10:05.747Z,15.80
2018-12-13T14:12:34.707Z,14.60
2018-12-13T14:15:03.678Z,16.07
2018-12-13T14:17:32.599Z,17.23
2018-12-13T14:20:01.520Z,14.50
2018-12-13T14:22:30.530Z,18.53
2018-12-13T14:24:59.527Z,16.60
2018-12-13T14:27:28.541Z,18.53
2018-12-13T14:29:57.511Z,16.47
2018-12-13T14:32:26.435Z,15.93
2018-12-13T14:34:57.560Z,17.97
2018-12-13T14:37:26.314Z,19.50
2018-12-13T14:39:55.262Z,18.53
2018-12-13T14:42:26.164Z,16.47
2018-12-13T14:44:55.081Z,17.83
2018-12-13T14:47:24.061Z,22.00
2018-12-13T14:49:53.050Z,19.07
2018-12-13T14:52:22.088Z,16.93
2018-12-13T14:54:51.104Z,20.13
2018-12-13T14:57:20.154Z,17.07
2018-12-13T14:59:50.146Z,17.80
2018-12-13T15:02:19.093Z,20.73
2018-12-13T15:04:50.055Z,19.73
2018-12-13T15:07:18.976Z,18.53
2018-12-13T15:09:50.898Z,21.47
2018-12-13T15:12:18.879Z,21.50
2018-12-13T15:14:47.844Z,18.07
2018-12-13T15:17:16.767Z,19.77
2018-12-13T15:19:45.699Z,18.10
2018-12-13T15:22:15.666Z,19.43
2018-12-13T15:24:44.700Z,16.90
2018-12-13T15:27:13.586Z,21.20
2018-12-13T15:29:42.543Z,19.83
2018-12-13T15:32:11.486Z,23.27
2018-12-13T15:34:40.398Z,20.10
2018-12-13T15:37:09.339Z,23.57
2018-12-13T15:39:38.269Z,21.27
2018-12-13T15:42:07.159Z,21.63
2018-12-13T15:44:36.097Z,19.70
2018-12-13T15:47:05.019Z,21.33
2018-12-13T15:49:34.233Z,20.20
2018-12-13T15:52:03.252Z,20.43
2018-12-13T15:54:32.128Z,20.13
2018-12-13T15:57:01.054Z,26.57
2018-12-13T15:59:29.971Z,21.00
2018-12-13T16:01:58.935Z,22.83
2018-12-13T16:04:27.861Z,23.77
2018-12-13T16:06:56.859Z,23.53
2018-12-13T16:09:25.793Z,22.07
2018-12-13T16:11:54.842Z,24.57
2018-12-13T16:14:23.766Z,23.27
2018-12-13T16:16:52.729Z,24.27
2018-12-13T16:19:21.655Z,28.77
2018-12-13T16:21:50.525Z,26.43
2018-12-13T16:24:19.548Z,23.50
2018-12-13T16:26:48.533Z,21.43
2018-12-13T16:29:18.434Z,23.07
2018-12-13T16:31:47.403Z,23.00
2018-12-13T16:34:16.361Z,23.93
2018-12-13T16:36:45.289Z,26.00
2018-12-13T16:39:14.171Z,24.37
2018-12-13T16:41:43.131Z,24.03
2018-12-13T16:44:12.065Z,24.07
2018-12-13T16:46:41.007Z,28.47
2018-12-13T16:49:10.030Z,23.33
2018-12-13T16:51:39.072Z,23.23
2018-12-13T16:54:08.136Z,25.07
2018-12-13T16:56:37.195Z,23.93
2018-12-13T16:59:06.229Z,24.67
2018-12-13T17:01:35.130Z,25.93
2018-12-13T17:04:04.052Z,23.80
2018-12-13T17:06:32.981Z,24.80
2018-12-13T17:11:38.239Z,25.03
2018-12-13T17:14:07.195Z,25.67
2018-12-13T17:16:36.216Z,24.43
2018-12-13T17:19:05.166Z,22.97
2018-12-13T17:21:34.124Z,23.63
2018-12-13T17:24:03.172Z,22.60
2018-12-13T17:26:32.156Z,24.10
2018-12-13T17:29:01.189Z,24.33
2018-12-13T17:31:30.185Z,23.07
2018-12-13T17:33:59.063Z,23.47
2018-12-13T17:36:28.007Z,24.83
2018-12-13T17:38:56.950Z,28.90
2018-12-13T17:41:26.200Z,23.80
2018-12-13T17:43:55.082Z,23.77
2018-12-13T17:46:24.138Z,26.93
2018-12-13T17:48:53.023Z,25.20
2018-12-13T17:51:21.968Z,27.70
2018-12-13T17:53:51.033Z,23.87
2018-12-13T17:56:20.545Z,27.00
2018-12-13T17:58:49.503Z,25.93
2018-12-13T18:01:18.489Z,27.30
2018-12-13T18:03:47.415Z,24.40
2018-12-13T18:06:16.374Z,24.90
2018-12-13T18:08:45.302Z,28.07
2018-12-13T18:11:14.206Z,28.50
2018-12-13T18:13:43.174Z,25.20
2018-12-13T18:16:12.051Z,25.97
2018-12-13T18:18:40.938Z,29.00
2018-12-13T18:21:09.959Z,27.60
2018-12-13T18:23:38.916Z,29.50
2018-12-13T18:26:07.840Z,26.63
2018-12-13T18:28:36.802Z,25.50
2018-12-13T18:31:05.754Z,29.43
2018-12-13T18:33:34.722Z,26.10
2018-12-13T18:36:03.634Z,24.37
2018-12-13T18:38:32.675Z,25.33
2018-12-13T18:41:01.630Z,26.70
2018-12-13T18:43:30.560Z,26.07
2018-12-13T18:45:59.548Z,25.07
2018-12-13T18:48:28.485Z,28.63
2018-12-13T18:50:57.470Z,27.80
2018-12-13T18:53:26.482Z,29.30
2018-12-13T18:55:55.422Z,29.63
2018-12-13T18:58:25.462Z,27.33
2018-12-13T19:00:55.446Z,27.43
2018-12-13T19:03:24.481Z,27.83
2018-12-13T19:05:53.448Z,28.47
2018-12-13T19:08:22.650Z,29.43
2018-12-13T19:10:51.639Z,29.27
2018-12-13T19:13:22.199Z,27.13
2018-12-13T19:15:51.193Z,29.13
2018-12-13T19:18:20.187Z,28.50
2018-12-13T19:20:50.165Z,27.80
2018-12-13T19:23:19.054Z,29.10
2018-12-13T19:25:49.061Z,30.13
2018-12-13T19:28:17.964Z,27.70
2018-12-13T19:30:46.889Z,32.13
2018-12-13T19:33:15.790Z,28.70
2018-12-13T19:35:44.751Z,32.07
2018-12-13T19:38:13.713Z,28.00
2018-12-13T19:40:48.175Z,29.60
2018-12-13T19:43:13.541Z,29.50
2018-12-13T19:45:42.470Z,31.00
2018-12-13T19:48:11.574Z,30.30
2018-12-13T19:50:41.146Z,29.87
2018-12-13T19:53:10.560Z,31.77
2018-12-13T19:55:39.455Z,28.50
2018-12-13T19:58:08.381Z,33.53
2018-12-13T20:00:37.321Z,30.40
2018-12-13T20:03:06.383Z,31.83
2018-12-13T20:05:35.297Z,31.10
2018-12-13T20:08:04.282Z,30.73
2018-12-13T20:10:33.212Z,32.20
2018-12-13T20:13:02.095Z,30.07
2018-12-13T20:15:31.080Z,31.73
2018-12-13T20:18:00.863Z,33.90
2018-12-13T20:20:29.834Z,32.33
2018-12-13T20:22:58.849Z,32.73
2018-12-13T20:25:27.764Z,30.63
2018-12-13T20:27:56.785Z,32.80
2018-12-13T20:30:26.765Z,35.50
2018-12-13T20:32:55.668Z,34.43
2018-12-13T20:35:24.630Z,29.97
2018-12-13T20:37:53.555Z,30.73
2018-12-13T20:40:22.505Z,24.37
2018-12-13T20:42:51.471Z,25.07
2018-12-13T20:45:20.390Z,28.57
2018-12-13T20:47:49.304Z,29.67
2018-12-13T20:50:18.494Z,25.47
2018-12-13T20:52:47.480Z,25.37
2018-12-13T20:55:16.451Z,27.63
2018-12-13T20:57:45.370Z,26.53
2018-12-13T21:00:14.402Z,25.30
2018-12-13T21:02:43.358Z,27.50
2018-12-13T21:05:12.442Z,23.03
2018-12-13T21:07:41.437Z,24.40
2018-12-13T21:10:11.062Z,26.00
2018-12-13T21:12:39.926Z,26.33
2018-12-13T21:15:09.318Z,22.73
2018-12-13T21:17:38.373Z,24.27
2018-12-13T21:20:07.368Z,27.63
2018-12-13T21:22:36.388Z,23.20
2018-12-13T21:25:05.634Z,25.03
2018-12-13T21:27:34.560Z,23.93
2018-12-13T21:30:03.503Z,23.30
2018-12-13T21:32:32.566Z,25.63
2018-12-13T21:35:01.485Z,26.60
2018-12-13T21:37:30.530Z,26.10
2018-12-13T21:39:59.410Z,25.20
2018-12-13T21:42:28.428Z,26.03
2018-12-13T21:44:57.558Z,26.20
2018-12-13T21:47:26.505Z,25.00
2018-12-13T21:49:55.471Z,26.87
2018-12-13T21:52:24.537Z,24.67
2018-12-13T21:54:53.610Z,25.60
2018-12-13T21:57:23.462Z,24.60
2018-12-13T21:59:52.451Z,24.37
2018-12-13T22:02:21.443Z,21.80
2018-12-13T22:04:50.437Z,22.97
2018-12-13T22:07:20.451Z,23.37
2018-12-13T22:09:49.393Z,25.03
2018-12-13T22:12:18.286Z,25.27
2018-12-13T22:14:47.266Z,28.07
2018-12-13T22:17:16.208Z,29.23
2018-12-13T22:19:45.243Z,22.10
2018-12-13T22:22:17.397Z,24.07
2018-12-13T22:24:46.422Z,26.23
2018-12-13T22:27:15.386Z,22.67
2018-12-13T22:29:44.354Z,23.67
2018-12-13T22:32:13.468Z,29.63
2018-12-13T22:34:42.756Z,24.93
2018-12-13T22:37:12.203Z,24.97
2018-12-13T22:39:41.445Z,25.33
2018-12-13T22:42:10.489Z,24.87
2018-12-13T22:44:39.451Z,24.20
2018-12-13T22:47:09.482Z,23.00
2018-12-13T22:49:39.176Z,25.37
2018-12-13T22:52:08.352Z,25.07
2018-12-13T22:54:37.363Z,23.17
2018-12-13T22:57:06.390Z,23.63
2018-12-13T22:59:35.417Z,21.50
2018-12-13T23:02:04.321Z,24.23
2018-12-13T23:04:33.358Z,23.10
2018-12-13T23:07:02.337Z,24.67
2018-12-13T23:09:31.318Z,23.30
2018-12-13T23:12:00.554Z,21.87
2018-12-13T23:14:31.523Z,25.13
2018-12-13T23:17:00.733Z,25.23
2018-12-13T23:19:29.771Z,24.57
2018-12-13T23:21:59.698Z,22.63
2018-12-13T23:24:28.840Z,22.93
2018-12-13T23:26:57.935Z,23.60
2018-12-13T23:29:26.950Z,21.33
2018-12-13T23:31:55.958Z,23.93
2018-12-13T23:34:25.619Z,22.67
2018-12-13T23:36:55.013Z,25.10
2018-12-13T23:39:24.132Z,21.57
2018-12-13T23:41:53.210Z,26.13
2018-12-13T23:44:23.220Z,24.33
2018-12-13T23:46:52.262Z,24.17
2018-12-13T23:49:22.286Z,30.50
2018-12-13T23:54:27.446Z,24.93
2018-12-13T23:56:57.449Z,29.30
2018-12-13T23:59:26.453Z,24.13
